Time;durP1;ratioP1;P1;durP2;ratioP2;P2;SDS_P1;SDS_P2;PMS_P1;PMS_P2;Temp;Humidity;BMP_temperature;BMP_pressure;BME280_temperature;BME280_humidity;BME280_pressure;Samples;Min_cycle;Max_cycle;Signal;HPM_P1;HPM_P2
2021/11/30 00:01:44;;;;;;;4.65;2.40;;;1.50;53.80;;;;;;5037262;28;20037;-78
2021/11/30 00:04:11;;;;;;;5.30;2.58;;;1.50;64.60;;;;;;5037349;28;20041;-78
2021/11/30 00:06:37;;;;;;;5.07;2.80;;;1.50;65.30;;;;;;5036055;28;20388;-78
2021/11/30 00:09:23;;;;;;;3.92;2.10;;;1.60;60.70;;;;;;5037614;28;20042;-78
2021/11/30 00:11:49;;;;;;;4.32;2.20;;;1.60;59.80;;;;;;5037454;28;20053;-78
2021/11/30 00:14:15;;;;;;;5.15;2.17;;;1.60;71.50;;;;;;5037113;28;20504;-78
2021/11/30 00:16:42;;;;;;;4.18;2.35;;;1.60;76.50;;;;;;5036642;28;20188;-78
2021/11/30 00:19:07;;;;;;;6.35;2.40;;;1.60;66.10;;;;;;5036092;28;20029;-78
2021/11/30 00:21:33;;;;;;;4.50;2.28;;;1.60;56.60;;;;;;5037024;28;20484;-78
2021/11/30 00:23:59;;;;;;;6.05;2.72;;;1.60;66.90;;;;;;5036504;28;20463;-78
2021/11/30 00:26:25;;;;;;;5.57;2.53;;;1.60;65.60;;;;;;5037113;28;20049;-78
2021/11/30 00:28:51;;;;;;;3.00;2.70;;;1.60;72.10;;;;;;5037269;28;20045;-78
2021/11/30 00:31:16;;;;;;;3.38;2.20;;;1.60;71.90;;;;;;5036787;28;20072;-79
2021/11/30 00:33:43;;;;;;;3.13;2.28;;;1.60;77.30;;;;;;5036375;28;20034;-78
2021/11/30 00:36:09;;;;;;;5.88;3.10;;;1.70;78.00;;;;;;5036577;28;20045;-78
2021/11/30 00:38:34;;;;;;;4.95;2.50;;;1.60;74.80;;;;;;5036445;28;20045;-78
2021/11/30 00:41:00;;;;;;;4.35;2.55;;;1.60;66.60;;;;;;5036676;28;20115;-78
2021/11/30 00:43:32;;;;;;;5.00;2.80;;;1.60;74.00;;;;;;5036666;28;20030;-78
2021/11/30 00:46:09;;;;;;;5.47;3.33;;;1.70;79.90;;;;;;5036684;28;20041;-78
2021/11/30 00:48:34;;;;;;;6.10;2.97;;;1.70;68.20;;;;;;5036533;28;20045;-78
2021/11/30 00:51:12;;;;;;;4.97;2.17;;;1.60;71.10;;;;;;5036476;28;20063;-78
2021/11/30 00:53:40;;;;;;;4.93;2.58;;;1.60;72.30;;;;;;5036892;28;20124;-78
2021/11/30 00:56:07;;;;;;;4.00;2.80;;;1.70;72.60;;;;;;5036389;28;20037;-78
2021/11/30 00:58:33;;;;;;;4.97;2.17;;;1.70;68.60;;;;;;5036506;28;20112;-78
2021/11/30 01:00:59;;;;;;;6.80;3.08;;;1.60;69.60;;;;;;5036024;28;20042;-78
2021/11/30 01:03:25;;;;;;;11.07;4.32;;;1.60;66.00;;;;;;5034853;28;20050;-78
2021/11/30 01:05:51;;;;;;;4.38;2.42;;;1.70;58.60;;;;;;5034969;28;20041;-78
2021/11/30 01:08:17;;;;;;;6.20;3.72;;;1.60;61.40;;;;;;5036339;28;20040;-78
2021/11/30 01:10:43;;;;;;;6.72;4.10;;;1.60;58.90;;;;;;5035752;28;20041;-78
2021/11/30 01:13:09;;;;;;;8.50;3.58;;;1.60;61.30;;;;;;5035996;28;20382;-78
2021/11/30 01:15:35;;;;;;;6.85;3.22;;;1.50;55.90;;;;;;5036063;28;20093;-78
2021/11/30 01:18:01;;;;;;;5.43;2.65;;;1.50;67.40;;;;;;5035950;28;20096;-78
2021/11/30 01:20:27;;;;;;;4.10;2.33;;;1.40;68.00;;;;;;5036498;28;20042;-78
2021/11/30 01:22:53;;;;;;;4.53;2.38;;;1.40;57.10;;;;;;5035875;28;20116;-79
2021/11/30 01:25:19;;;;;;;5.15;2.95;;;1.40;61.30;;;;;;5036624;28;20045;-78
2021/11/30 01:27:47;;;;;;;7.38;3.28;;;1.40;69.20;;;;;;5036101;28;20033;-78
2021/11/30 01:30:14;;;;;;;5.68;3.22;;;1.40;72.40;;;;;;5035723;28;20136;-78
2021/11/30 01:32:41;;;;;;;4.00;3.40;;;1.40;58.80;;;;;;5035821;28;20560;-78
2021/11/30 01:35:08;;;;;;;4.53;2.60;;;1.40;68.40;;;;;;5035929;28;20059;-78
2021/11/30 01:37:34;;;;;;;6.15;2.97;;;1.50;68.80;;;;;;5035618;28;20040;-78
2021/11/30 01:40:00;;;;;;;4.95;2.45;;;1.50;72.60;;;;;;5035912;28;20045;-78
2021/11/30 01:42:26;;;;;;;7.22;3.45;;;1.50;56.00;;;;;;5036093;28;20107;-78
2021/11/30 01:45:02;;;;;;;5.03;2.67;;;1.50;61.30;;;;;;5035757;28;20044;-78
2021/11/30 01:50:03;;;;;;;6.93;3.05;;;1.50;60.00;;;;;;5035394;28;20484;-78
2021/11/30 01:52:29;;;;;;;5.65;2.83;;;1.50;60.50;;;;;;5034079;28;20038;-78
2021/11/30 01:54:55;;;;;;;6.43;2.80;;;1.50;65.10;;;;;;5035541;28;20127;-78
2021/11/30 01:57:25;;;;;;;5.82;3.13;;;1.50;66.40;;;;;;5035239;28;20088;-78
2021/11/30 01:59:53;;;;;;;6.57;2.88;;;1.50;57.30;;;;;;5035597;28;20045;-78
2021/11/30 02:02:20;;;;;;;3.92;2.58;;;1.50;59.00;;;;;;5035573;28;20182;-78
2021/11/30 02:04:47;;;;;;;4.68;2.65;;;1.50;50.30;;;;;;5035362;28;20119;-77
2021/11/30 02:07:13;;;;;;;6.32;2.85;;;1.50;50.20;;;;;;5035390;28;20075;-78
2021/11/30 02:09:40;;;;;;;6.97;2.65;;;1.40;49.00;;;;;;5035044;28;20206;-78
2021/11/30 02:12:08;;;;;;;6.03;3.53;;;1.50;53.30;;;;;;5033707;28;20037;-78
2021/11/30 02:14:35;;;;;;;4.90;2.45;;;1.50;50.70;;;;;;5035242;28;20057;-79
2021/11/30 02:17:03;;;;;;;5.90;2.63;;;1.50;49.30;;;;;;5035233;28;20411;-78
2021/11/30 02:19:29;;;;;;;3.90;2.20;;;1.40;41.00;;;;;;5035375;28;20119;-78
2021/11/30 02:21:55;;;;;;;4.20;2.47;;;1.40;41.40;;;;;;5034848;28;20400;-78
2021/11/30 02:24:21;;;;;;;5.25;2.85;;;1.40;40.10;;;;;;5034948;28;20202;-78
2021/11/30 02:26:47;;;;;;;5.05;2.67;;;1.40;41.20;;;;;;5034487;28;20029;-78
2021/11/30 02:29:13;;;;;;;6.38;2.67;;;1.40;45.20;;;;;;5034891;28;20082;-78
2021/11/30 02:31:46;;;;;;;4.55;2.78;;;1.40;43.60;;;;;;5034431;28;20049;-78
2021/11/30 02:34:13;;;;;;;4.25;2.50;;;1.40;44.80;;;;;;5034554;28;20077;-78
2021/11/30 02:39:13;;;;;;;3.00;2.15;;;1.40;41.90;;;;;;5034826;28;20053;-78
2021/11/30 02:41:40;;;;;;;5.38;2.33;;;1.40;42.70;;;;;;5034796;28;20044;-78
2021/11/30 02:44:08;;;;;;;3.72;1.95;;;1.50;37.10;;;;;;5034280;28;20384;-78
2021/11/30 02:46:40;;;;;;;4.05;2.50;;;1.50;38.80;;;;;;5034509;28;20041;-78
2021/11/30 02:49:09;;;;;;;3.10;2.00;;;1.50;30.40;;;;;;5034802;28;20041;-78
2021/11/30 02:51:37;;;;;;;4.28;2.20;;;1.50;37.30;;;;;;5034474;28;20041;-77
2021/11/30 02:54:08;;;;;;;5.68;1.77;;;1.50;29.60;;;;;;5034176;28;20045;-77
2021/11/30 02:56:50;;;;;;;3.05;2.00;;;1.50;27.50;;;;;;5033147;28;20504;-78
2021/11/30 02:59:16;;;;;;;2.67;1.75;;;1.50;27.50;;;;;;5034723;28;20045;-78
2021/11/30 03:01:51;;;;;;;3.38;1.83;;;1.50;27.20;;;;;;5036757;28;20033;-78
2021/11/30 03:04:17;;;;;;;8.95;2.25;;;1.50;18.90;;;;;;5039027;28;20036;-78
2021/11/30 03:06:43;;;;;;;3.08;2.10;;;1.50;24.80;;;;;;5037151;28;20030;-78
2021/11/30 03:09:10;;;;;;;3.53;2.17;;;1.50;21.90;;;;;;5038324;28;20033;-78
2021/11/30 03:11:36;;;;;;;4.55;2.85;;;1.50;24.60;;;;;;5038263;28;20492;-78
2021/11/30 03:14:02;;;;;;;5.18;2.90;;;1.50;30.60;;;;;;5038299;28;20033;-78
2021/11/30 03:16:29;;;;;;;2.35;1.85;;;1.50;25.40;;;;;;5038220;28;20045;-78
2021/11/30 03:18:56;;;;;;;4.15;1.98;;;1.50;20.20;;;;;;5038094;28;20034;-78
2021/11/30 03:21:22;;;;;;;5.28;2.50;;;1.50;17.60;;;;;;5038467;28;20508;-78
2021/11/30 03:23:47;;;;;;;4.35;2.28;;;1.50;20.50;;;;;;5037860;28;20049;-78
2021/11/30 03:26:14;;;;;;;4.43;1.83;;;1.50;17.10;;;;;;5038414;28;20037;-79
2021/11/30 03:28:43;;;;;;;3.63;2.08;;;1.50;19.40;;;;;;5038303;28;20118;-78
2021/11/30 03:31:31;;;;;;;3.55;1.92;;;1.50;8.10;;;;;;5038196;28;20050;-78
2021/11/30 03:34:01;;;;;;;4.65;1.90;;;1.50;13.00;;;;;;5036546;28;20044;-77
2021/11/30 03:36:32;;;;;;;3.58;1.70;;;1.50;7.80;;;;;;5038463;28;20044;-79
2021/11/30 03:39:00;;;;;;;5.80;2.45;;;1.60;15.80;;;;;;5038592;28;20545;-78
2021/11/30 03:41:32;;;;;;;4.65;2.13;;;1.50;8.50;;;;;;5037772;28;20091;-79
2021/11/30 03:43:58;;;;;;;3.15;1.58;;;1.50;13.80;;;;;;5038416;28;20045;-78
2021/11/30 03:46:24;;;;;;;3.85;1.85;;;1.50;6.10;;;;;;5038253;28;20041;-78
2021/11/30 03:48:50;;;;;;;4.40;2.10;;;1.60;5.00;;;;;;5037641;28;20099;-78
2021/11/30 03:51:16;;;;;;;4.95;2.03;;;1.60;6.10;;;;;;5037847;28;20041;-78
2021/11/30 03:53:42;;;;;;;4.32;1.92;;;1.60;1.00;;;;;;5037577;28;20091;-78
2021/11/30 03:56:07;;;;;;;3.72;2.25;;;1.60;6.80;;;;;;5037527;28;20048;-78
2021/11/30 03:58:34;;;;;;;3.08;2.17;;;1.60;3.40;;;;;;5037742;28;20069;-78
2021/11/30 04:01:00;;;;;;;4.80;1.92;;;1.60;6.70;;;;;;5038011;28;20046;-78
2021/11/30 04:03:28;;;;;;;2.60;1.52;;;1.60;6.10;;;;;;5037272;28;20041;-78
2021/11/30 04:05:55;;;;;;;2.63;1.90;;;1.50;1.00;;;;;;5037378;28;20037;-78
2021/11/30 04:08:21;;;;;;;3.97;1.73;;;1.50;1.00;;;;;;5037779;28;20269;-78
2021/11/30 04:10:47;;;;;;;3.45;1.67;;;1.50;1.00;;;;;;5036854;28;20072;-79
2021/11/30 04:13:13;;;;;;;3.78;1.92;;;1.50;2.10;;;;;;5036716;28;20492;-78
2021/11/30 04:15:39;;;;;;;3.42;2.00;;;1.50;2.50;;;;;;5037282;28;20041;-78
2021/11/30 04:18:05;;;;;;;2.92;1.50;;;1.50;4.30;;;;;;5035998;28;20033;-78
2021/11/30 04:20:31;;;;;;;3.83;2.10;;;1.60;1.40;;;;;;5037403;28;20041;-78
2021/11/30 04:22:57;;;;;;;6.05;4.25;;;1.60;2.90;;;;;;5037269;28;20041;-79
2021/11/30 04:25:23;;;;;;;4.97;3.58;;;1.60;10.10;;;;;;5037107;28;20064;-78
2021/11/30 04:27:49;;;;;;;6.07;3.88;;;1.60;15.30;;;;;;5036992;28;20034;-78
2021/11/30 04:30:15;;;;;;;7.00;3.97;;;1.60;19.10;;;;;;5037160;28;20041;-78
2021/11/30 04:32:41;;;;;;;7.50;3.97;;;1.60;27.90;;;;;;5036693;28;20128;-79
2021/11/30 04:35:08;;;;;;;7.43;4.32;;;1.60;26.00;;;;;;5036539;28;20492;-78
2021/11/30 04:37:34;;;;;;;9.35;4.97;;;1.60;31.80;;;;;;5036787;28;20034;-78
2021/11/30 04:40:00;;;;;;;7.65;4.80;;;1.50;26.60;;;;;;5036793;28;20037;-78
2021/11/30 04:42:27;;;;;;;6.82;4.22;;;1.50;25.10;;;;;;5036710;28;20033;-78
2021/11/30 04:45:03;;;;;;;8.13;3.65;;;1.40;28.30;;;;;;5036653;28;20045;-78
2021/11/30 04:47:32;;;;;;;7.38;3.83;;;1.40;22.80;;;;;;5036412;28;20072;-78
2021/11/30 04:50:01;;;;;;;9.65;4.45;;;1.40;29.60;;;;;;5036587;28;20041;-78
2021/11/30 04:52:28;;;;;;;13.88;7.45;;;1.30;28.90;;;;;;5036787;28;20234;-78
2021/11/30 04:54:53;;;;;;;9.27;4.32;;;1.30;32.30;;;;;;5035158;28;20033;-77
2021/11/30 04:57:19;;;;;;;9.73;4.03;;;1.30;34.30;;;;;;5036133;28;20083;-78
2021/11/30 04:59:45;;;;;;;6.63;3.58;;;1.30;39.90;;;;;;5036173;28;20399;-78
2021/11/30 05:02:11;;;;;;;10.85;5.65;;;1.20;34.80;;;;;;5034860;28;20044;-78
2021/11/30 05:04:38;;;;;;;9.77;5.40;;;1.20;50.50;;;;;;5035067;28;20045;-78
2021/11/30 05:07:04;;;;;;;8.88;5.00;;;1.20;51.50;;;;;;5036707;28;20160;-77
2021/11/30 05:09:30;;;;;;;9.88;4.72;;;1.10;45.40;;;;;;5036135;28;20041;-78
2021/11/30 05:11:57;;;;;;;10.43;4.50;;;1.10;50.60;;;;;;5035434;28;20039;-78
2021/11/30 05:14:23;;;;;;;9.57;4.18;;;1.10;51.20;;;;;;5035973;28;20034;-78
2021/11/30 05:16:49;;;;;;;8.45;4.07;;;1.00;53.60;;;;;;5031145;28;20107;-78
2021/11/30 05:19:14;;;;;;;6.78;4.10;;;1.00;53.00;;;;;;5035352;28;20488;-79
2021/11/30 05:21:40;;;;;;;6.03;3.90;;;1.00;53.10;;;;;;5035133;28;20064;-80
2021/11/30 05:24:08;;;;;;;8.20;4.25;;;1.00;64.60;;;;;;5035192;28;20114;-79
2021/11/30 05:26:35;;;;;;;6.60;4.55;;;0.90;63.70;;;;;;5036158;28;20549;-78
2021/11/30 05:29:02;;;;;;;8.95;5.45;;;0.90;74.20;;;;;;5035754;28;20069;-78
2021/11/30 05:31:29;;;;;;;7.75;4.85;;;0.90;78.10;;;;;;5035253;28;20049;-78
2021/11/30 05:33:55;;;;;;;12.50;5.10;;;0.90;88.20;;;;;;5034002;28;20531;-78
2021/11/30 05:36:22;;;;;;;9.30;4.93;;;0.90;88.00;;;;;;5034631;28;20045;-75
2021/11/30 05:38:48;;;;;;;17.00;6.20;;;0.90;91.40;;;;;;5034933;28;20045;-78
2021/11/30 05:41:14;;;;;;;13.43;7.85;;;0.90;94.30;;;;;;5035700;28;20041;-78
2021/11/30 05:43:40;;;;;;;13.43;7.60;;;0.90;98.00;;;;;;5035731;28;20037;-78
2021/11/30 05:46:06;;;;;;;18.02;9.82;;;1.00;99.40;;;;;;5035358;28;20049;-77
2021/11/30 05:48:33;;;;;;;17.13;9.75;;;1.00;99.90;;;;;;5035638;28;20049;-78
2021/11/30 05:51:00;;;;;;;17.35;9.35;;;1.00;99.90;;;;;;5035399;28;20052;-77
2021/11/30 05:53:26;;;;;;;13.98;7.50;;;1.00;99.90;;;;;;5035303;28;20044;-78
2021/11/30 05:56:01;;;;;;;11.23;7.43;;;1.00;99.90;;;;;;5035318;28;20037;-78
2021/11/30 05:58:28;;;;;;;9.93;6.65;;;1.10;99.90;;;;;;5036012;28;20037;-78
2021/11/30 06:01:00;;;;;;;13.98;7.70;;;1.10;99.90;;;;;;5035744;28;20041;-78
2021/11/30 06:03:32;;;;;;;13.05;7.35;;;1.00;99.90;;;;;;5035399;28;20073;-77
2021/11/30 06:05:58;;;;;;;11.75;6.18;;;1.00;99.90;;;;;;5035185;28;20463;-78
2021/11/30 06:08:24;;;;;;;10.60;7.57;;;1.10;99.90;;;;;;5035484;28;20128;-78
2021/11/30 06:10:50;;;;;;;9.82;6.35;;;1.10;99.90;;;;;;5035260;28;20443;-79
2021/11/30 06:13:16;;;;;;;12.50;7.60;;;1.10;99.90;;;;;;5035220;28;20037;-78
2021/11/30 06:15:42;;;;;;;11.38;6.47;;;1.10;99.90;;;;;;5035312;28;20033;-78
2021/11/30 06:18:08;;;;;;;14.48;7.53;;;1.10;99.90;;;;;;5035172;28;20102;-78
2021/11/30 06:20:35;;;;;;;8.52;5.93;;;1.00;99.90;;;;;;5033898;28;20040;-78
2021/11/30 06:23:01;;;;;;;9.07;5.40;;;1.00;99.90;;;;;;5034823;28;20543;-78
2021/11/30 06:25:27;;;;;;;8.45;5.13;;;1.00;99.90;;;;;;5049642;28;20057;-78
2021/11/30 06:27:54;;;;;;;11.15;6.57;;;1.00;99.90;;;;;;5035298;28;20045;-78
2021/11/30 06:30:20;;;;;;;9.70;5.88;;;1.00;99.90;;;;;;5033637;28;20140;-78
2021/11/30 06:32:46;;;;;;;9.55;5.93;;;1.00;99.90;;;;;;5033928;28;20148;-78
2021/11/30 06:35:12;;;;;;;8.43;5.43;;;1.00;99.90;;;;;;5032437;28;20038;-78
2021/11/30 06:37:38;;;;;;;10.45;5.88;;;0.90;99.90;;;;;;5034393;28;20033;-78
2021/11/30 06:40:05;;;;;;;9.63;4.97;;;0.90;98.40;;;;;;5034609;28;20045;-78
2021/11/30 06:42:31;;;;;;;7.72;4.78;;;0.80;98.70;;;;;;5033794;28;20080;-78
2021/11/30 06:44:57;;;;;;;8.82;4.22;;;0.80;99.90;;;;;;5033577;28;20064;-78
2021/11/30 06:47:24;;;;;;;6.90;4.80;;;0.80;97.60;;;;;;5033384;28;20043;-78
2021/11/30 06:49:50;;;;;;;7.60;4.93;;;0.80;99.90;;;;;;5033232;28;20045;-78
2021/11/30 06:52:16;;;;;;;8.57;4.65;;;0.80;97.30;;;;;;5033470;28;20117;-78
2021/11/30 06:54:47;;;;;;;10.07;4.93;;;0.80;94.70;;;;;;5033439;28;20137;-78
2021/11/30 06:57:14;;;;;;;7.40;4.72;;;0.80;99.90;;;;;;5033405;28;20112;-78
2021/11/30 06:59:40;;;;;;;11.32;5.75;;;0.80;95.50;;;;;;5033637;28;20067;-78
2021/11/30 07:02:08;;;;;;;8.60;4.20;;;0.80;99.90;;;;;;5033228;28;20025;-77
2021/11/30 07:04:38;;;;;;;6.78;4.82;;;0.70;96.50;;;;;;5033082;28;20041;-78
2021/11/30 07:12:47;;;;;;;8.68;4.75;;;0.70;99.90;;;;;;5033011;28;20546;-78
2021/11/30 07:15:11;;;;;;;8.43;4.43;;;0.70;99.70;;;;;;5032949;28;20051;-78
2021/11/30 07:17:38;;;;;;;9.10;4.38;;;0.60;99.90;;;;;;5033267;28;20539;-73
2021/11/30 07:20:05;;;;;;;7.25;3.97;;;0.40;99.00;;;;;;5034188;28;20073;-73
2021/11/30 07:22:31;;;;;;;7.72;4.18;;;-0.20;99.90;;;;;;5034460;28;20025;-73
2021/11/30 07:24:58;;;;;;;5.20;4.18;;;-0.40;99.90;;;;;;5034135;28;20045;-73
2021/11/30 07:27:24;;;;;;;7.32;4.50;;;-0.60;99.90;;;;;;5034442;28;20072;-73
2021/11/30 07:29:49;;;;;;;8.88;3.30;;;-0.60;99.90;;;;;;5034080;28;20057;-72
2021/11/30 07:32:16;;;;;;;3.80;1.85;;;-0.50;99.90;;;;;;5034162;28;20048;-72
2021/11/30 07:34:42;;;;;;;2.10;1.70;;;-0.30;69.50;;;;;;5034206;28;20041;-72
2021/11/30 07:37:08;;;;;;;3.65;1.60;;;-0.10;47.40;;;;;;5034491;28;20034;-71
2021/11/30 07:39:34;;;;;;;37.22;16.40;;;0.10;23.50;;;;;;5034352;28;20377;-72
2021/11/30 07:42:01;;;;;;;13.32;7.22;;;0.30;44.20;;;;;;5034566;28;20045;-72
2021/11/30 07:44:28;;;;;;;18.75;9.13;;;0.40;51.00;;;;;;5034253;28;20034;-72
2021/11/30 07:46:54;;;;;;;21.90;11.35;;;0.30;78.80;;;;;;5036235;28;20041;-71
2021/11/30 07:49:21;;;;;;;45.47;24.17;;;0.10;97.00;;;;;;5037882;28;20107;-71
2021/11/30 07:51:47;;;;;;;8.32;5.10;;;0.00;96.90;;;;;;5037453;28;20045;-71
2021/11/30 07:54:13;;;;;;;4.85;3.60;;;-0.10;99.30;;;;;;5037889;28;20041;-71
2021/11/30 07:56:39;;;;;;;40.67;17.95;;;0.00;90.30;;;;;;5037517;28;20404;-72
2021/11/30 07:59:05;;;;;;;8.52;3.95;;;0.10;80.80;;;;;;5037934;28;20045;-72
2021/11/30 08:01:31;;;;;;;16.60;9.50;;;0.30;35.20;;;;;;5037672;28;20045;-72
2021/11/30 08:03:57;;;;;;;7.63;4.32;;;0.50;21.00;;;;;;5037163;28;20106;-72
2021/11/30 08:06:23;;;;;;;7.05;4.20;;;0.60;6.10;;;;;;5036717;28;20041;-72
2021/11/30 08:08:52;;;;;;;6.30;3.95;;;0.60;24.00;;;;;;5035494;28;20050;-72
2021/11/30 08:11:18;;;;;;;14.85;10.20;;;0.80;13.10;;;;;;5035618;28;20043;-72
2021/11/30 08:13:44;;;;;;;5.10;3.53;;;0.60;21.30;;;;;;5035990;28;20045;-72
2021/11/30 08:16:09;;;;;;;6.15;3.58;;;0.80;9.70;;;;;;5037990;28;20360;-72
2021/11/30 08:18:35;;;;;;;8.65;5.05;;;0.60;23.60;;;;;;5037271;28;20133;-71
2021/11/30 08:21:01;;;;;;;272.48;143.43;;;0.60;32.30;;;;;;5037278;28;20045;-71
2021/11/30 08:23:27;;;;;;;7.47;5.75;;;0.60;17.90;;;;;;5035309;28;20041;-72
2021/11/30 08:25:53;;;;;;;5.72;2.97;;;0.90;1.00;;;;;;5033132;28;20045;-72
2021/11/30 08:28:19;;;;;;;6.00;4.30;;;1.10;1.00;;;;;;5036750;28;20079;-72
2021/11/30 08:30:47;;;;;;;3.35;2.35;;;1.40;1.00;;;;;;5036442;28;20076;-72
2021/11/30 08:33:13;;;;;;;5.72;5.13;;;1.50;1.00;;;;;;5036463;28;20393;-72
2021/11/30 08:35:39;;;;;;;2.75;2.00;;;1.50;1.00;;;;;;5036635;28;20037;-72
2021/11/30 08:38:05;;;;;;;3.97;2.47;;;1.60;1.00;;;;;;5036721;28;20037;-72
2021/11/30 08:40:32;;;;;;;1.60;1.10;;;1.70;1.00;;;;;;5036697;28;20045;-72
2021/11/30 08:42:58;;;;;;;0.93;0.90;;;1.80;1.00;;;;;;5036343;28;20107;-72
2021/11/30 08:45:24;;;;;;;2.42;0.95;;;2.00;1.00;;;;;;5036640;28;20038;-72
2021/11/30 08:47:50;;;;;;;1.52;1.10;;;2.10;1.00;;;;;;5036332;28;20072;-71
2021/11/30 08:50:18;;;;;;;0.95;0.60;;;2.20;1.00;;;;;;5036354;28;20088;-72
2021/11/30 08:52:45;;;;;;;2.95;1.20;;;2.20;1.00;;;;;;5035955;28;20063;-71
2021/11/30 08:55:12;;;;;;;2.83;1.50;;;2.20;1.00;;;;;;5035222;28;20037;-71
2021/11/30 08:57:40;;;;;;;2.05;1.27;;;2.20;1.00;;;;;;5035174;28;20041;-71
2021/11/30 09:00:15;;;;;;;2.53;1.48;;;2.30;1.00;;;;;;5036338;28;20522;-72
2021/11/30 09:02:41;;;;;;;3.28;1.60;;;2.30;1.00;;;;;;5031220;28;20099;-73
2021/11/30 09:05:09;;;;;;;4.18;3.78;;;2.30;1.00;;;;;;5032667;28;20041;-73
2021/11/30 09:07:35;;;;;;;1.67;1.20;;;2.40;1.00;;;;;;5035984;28;20037;-73
2021/11/30 09:10:02;;;;;;;3.10;1.77;;;2.40;1.00;;;;;;5036121;28;20045;-73
2021/11/30 09:12:28;;;;;;;3.10;1.65;;;2.40;1.00;;;;;;5035719;28;20053;-74
2021/11/30 09:14:54;;;;;;;2.22;1.98;;;2.40;1.00;;;;;;5036158;28;20041;-74
2021/11/30 09:17:22;;;;;;;4.32;2.00;;;2.40;1.00;;;;;;5035496;28;20476;-74
2021/11/30 09:19:48;;;;;;;3.95;2.25;;;2.40;1.00;;;;;;5036105;28;20059;-73
2021/11/30 09:22:14;;;;;;;3.92;1.80;;;2.50;1.00;;;;;;5035939;28;20489;-74
2021/11/30 09:24:39;;;;;;;3.08;1.42;;;2.50;1.00;;;;;;5036037;28;20049;-74
2021/11/30 09:27:06;;;;;;;3.13;1.52;;;2.60;1.00;;;;;;5036182;28;20041;-73
2021/11/30 09:29:32;;;;;;;3.13;1.95;;;2.60;1.00;;;;;;5035748;28;20041;-73
2021/11/30 09:31:58;;;;;;;2.55;1.48;;;2.70;1.00;;;;;;5036130;28;20102;-73
2021/11/30 09:34:25;;;;;;;2.10;1.33;;;2.70;1.00;;;;;;5035993;28;20037;-70
2021/11/30 09:36:54;;;;;;;11.20;8.50;;;2.90;1.00;;;;;;5035717;28;20042;-74
2021/11/30 09:39:21;;;;;;;1.70;1.02;;;3.00;1.00;;;;;;5035520;28;20526;-73
2021/11/30 09:41:47;;;;;;;2.42;1.30;;;3.00;1.00;;;;;;5035671;28;20041;-74
2021/11/30 09:44:16;;;;;;;2.55;1.50;;;3.10;1.00;;;;;;5035530;28;20080;-73
2021/11/30 09:46:43;;;;;;;3.42;2.85;;;3.20;1.00;;;;;;5034646;28;20041;-73
2021/11/30 09:49:08;;;;;;;3.85;0.90;;;3.20;1.00;;;;;;5033511;28;20084;-72
2021/11/30 09:51:35;;;;;;;2.65;1.50;;;3.20;1.00;;;;;;5033564;28;20045;-73
2021/11/30 09:54:01;;;;;;;9.77;5.75;;;3.20;1.00;;;;;;5033527;28;20076;-71
2021/11/30 09:56:27;;;;;;;1.85;1.40;;;3.20;1.00;;;;;;5033190;28;20037;-71
2021/11/30 09:58:53;;;;;;;5.55;4.35;;;3.20;1.00;;;;;;5033538;28;20439;-72
2021/11/30 10:01:20;;;;;;;3.85;2.63;;;3.40;1.00;;;;;;5033159;28;20124;-72
2021/11/30 10:03:46;;;;;;;12.80;7.53;;;3.40;1.00;;;;;;5033663;28;20033;-72
2021/11/30 10:06:13;;;;;;;11.40;6.47;;;3.40;1.00;;;;;;5035451;28;20042;-72
2021/11/30 10:08:49;;;;;;;5.90;3.00;;;3.40;1.00;;;;;;5035554;28;20041;-72
2021/11/30 10:11:34;;;;;;;10.45;5.13;;;3.40;1.00;;;;;;5035556;28;20052;-72
2021/11/30 10:14:34;;;;;;;28.63;15.57;;;3.40;1.00;;;;;;5032015;28;20037;-72
2021/11/30 10:17:09;;;;;;;4.68;2.58;;;3.40;1.00;;;;;;4998495;28;20059;-73
2021/11/30 10:19:36;;;;;;;3.22;2.30;;;3.50;1.00;;;;;;5032078;28;20512;-72
2021/11/30 10:22:02;;;;;;;3.08;2.03;;;3.60;1.00;;;;;;5034597;28;20053;-72
2021/11/30 10:24:28;;;;;;;6.07;3.55;;;3.60;1.00;;;;;;5034775;28;20045;-72
2021/11/30 10:26:57;;;;;;;16.98;11.32;;;3.60;1.00;;;;;;5034768;28;20033;-72
2021/11/30 10:29:24;;;;;;;21.80;13.32;;;3.60;1.00;;;;;;5034909;28;20049;-72
2021/11/30 10:31:54;;;;;;;6.97;4.57;;;3.70;1.00;;;;;;5034322;28;20116;-72
2021/11/30 10:34:28;;;;;;;14.63;8.73;;;3.80;1.00;;;;;;5034928;28;20037;-72
2021/11/30 10:37:07;;;;;;;2.13;1.20;;;3.80;1.00;;;;;;5035255;28;20041;-72
2021/11/30 10:39:39;;;;;;;3.10;2.25;;;3.80;1.00;;;;;;5034488;28;20072;-72
2021/11/30 10:42:18;;;;;;;21.83;13.32;;;3.70;1.00;;;;;;5034579;28;20053;-72
2021/11/30 10:44:46;;;;;;;3.15;1.98;;;3.80;1.00;;;;;;5034396;28;20061;-72
2021/11/30 10:47:22;;;;;;;5.70;3.03;;;3.80;1.00;;;;;;5034112;28;20508;-72
2021/11/30 10:49:54;;;;;;;2.45;1.40;;;3.80;1.00;;;;;;5034555;28;20103;-72
2021/11/30 10:52:29;;;;;;;3.92;2.17;;;4.00;1.00;;;;;;5034511;28;20041;-72
2021/11/30 10:55:14;;;;;;;27.02;16.30;;;4.00;1.00;;;;;;5034244;28;20413;-72
2021/11/30 10:57:42;;;;;;;34.65;17.70;;;4.00;1.00;;;;;;5034138;28;20035;-72
2021/11/30 11:00:10;;;;;;;2.95;1.70;;;4.10;1.00;;;;;;5034404;28;20055;-72
2021/11/30 11:05:30;;;;;;;1.92;1.33;;;4.20;1.00;;;;;;5030701;28;20029;-72
2021/11/30 11:08:05;;;;;;;2.13;1.52;;;4.20;1.00;;;;;;5033417;28;20034;-72
2021/11/30 11:10:33;;;;;;;3.75;1.73;;;4.10;1.00;;;;;;5034266;28;20104;-71
2021/11/30 11:13:34;;;;;;;1.92;1.58;;;4.20;1.00;;;;;;5034279;28;20037;-71
2021/11/30 11:16:16;;;;;;;3.15;2.08;;;4.20;1.00;;;;;;5034676;28;20041;-71
2021/11/30 11:18:44;;;;;;;3.75;2.35;;;4.20;1.00;;;;;;5033863;28;20127;-71
2021/11/30 11:21:11;;;;;;;1.83;1.20;;;4.20;1.00;;;;;;5035096;28;20049;-72
2021/11/30 11:23:42;;;;;;;1.40;1.00;;;4.20;1.00;;;;;;5037610;28;20489;-72
2021/11/30 11:26:21;;;;;;;;;;;4.30;1.00;;;;;;5038292;28;20036;-71
2021/11/30 11:28:47;;;;;;;5.40;1.20;;;4.40;1.00;;;;;;5038724;28;20398;-71
2021/11/30 11:31:13;;;;;;;2.88;1.63;;;4.40;1.00;;;;;;5038518;28;20079;-71
2021/11/30 11:33:39;;;;;;;14.77;11.30;;;4.30;1.00;;;;;;5037753;28;20041;-71
2021/11/30 11:36:06;;;;;;;8.60;4.60;;;4.40;1.00;;;;;;5038225;28;20041;-73
2021/11/30 11:38:33;;;;;;;2.28;1.88;;;4.30;1.00;;;;;;5038606;28;20041;-72
2021/11/30 11:40:59;;;;;;;2.83;1.35;;;4.40;1.00;;;;;;5037792;28;20038;-72
2021/11/30 11:43:26;;;;;;;2.65;1.73;;;4.40;1.00;;;;;;5037706;28;20045;-72
2021/11/30 11:45:53;;;;;;;3.47;2.80;;;4.50;1.00;;;;;;5036144;28;20057;-71
2021/11/30 11:48:20;;;;;;;4.90;3.38;;;4.50;1.00;;;;;;5035318;28;20049;-72
2021/11/30 11:50:58;;;;;;;2.10;1.95;;;4.40;1.00;;;;;;5036292;28;20572;-71
2021/11/30 11:53:27;;;;;;;2.33;1.15;;;4.50;1.00;;;;;;5037883;28;20144;-72
2021/11/30 11:56:13;;;;;;;10.40;9.35;;;4.50;1.00;;;;;;5037458;28;20500;-72
2021/11/30 11:58:41;;;;;;;3.22;1.35;;;4.50;1.00;;;;;;5037568;28;20116;-72
2021/11/30 12:01:14;;;;;;;1.80;1.33;;;4.60;1.00;;;;;;5037724;28;20072;-71
2021/11/30 12:03:52;;;;;;;1.52;1.10;;;4.60;1.00;;;;;;5036713;28;20038;-71
2021/11/30 12:06:25;;;;;;;2.72;1.25;;;4.60;1.00;;;;;;5037636;28;20041;-71
2021/11/30 12:09:17;;;;;;;1.45;0.90;;;4.60;1.00;;;;;;5037658;28;20049;-72
2021/11/30 12:11:53;;;;;;;3.17;1.00;;;4.60;1.00;;;;;;5037777;28;20041;-72
2021/11/30 12:14:29;;;;;;;2.53;1.10;;;4.60;1.00;;;;;;5037427;28;20132;-72
2021/11/30 12:17:04;;;;;;;2.58;1.92;;;4.60;1.00;;;;;;5037413;28;20123;-72
2021/11/30 12:19:32;;;;;;;4.28;1.45;;;4.60;1.00;;;;;;5037379;28;20473;-72
2021/11/30 12:21:58;;;;;;;1.40;0.90;;;4.60;1.00;;;;;;5037141;28;20045;-72
2021/11/30 12:24:43;;;;;;;3.30;3.00;;;4.60;1.00;;;;;;5037141;28;20136;-72
2021/11/30 12:27:24;;;;;;;1.40;1.30;;;4.70;1.00;;;;;;5037096;28;20124;-72
2021/11/30 12:29:52;;;;;;;2.05;1.95;;;4.70;1.00;;;;;;5037003;28;20037;-72
2021/11/30 12:32:52;;;;;;;1.10;0.60;;;4.90;1.00;;;;;;5035777;28;20147;-72
2021/11/30 12:35:19;;;;;;;0.93;0.68;;;4.80;1.00;;;;;;5036692;28;20088;-72
2021/11/30 12:37:47;;;;;;;7.88;5.85;;;4.80;1.00;;;;;;5036701;28;20033;-72
2021/11/30 12:40:18;;;;;;;1.70;1.40;;;4.80;1.00;;;;;;5036563;28;20123;-72
2021/11/30 12:42:46;;;;;;;;;;;4.90;1.00;;;;;;5036895;28;20041;-72
2021/11/30 12:45:22;;;;;;;2.55;1.50;;;4.80;1.00;;;;;;5036697;28;20011;-72
2021/11/30 12:47:48;;;;;;;2.25;1.80;;;4.90;1.00;;;;;;5036695;28;20117;-72
2021/11/30 12:50:26;;;;;;;7.00;3.28;;;4.90;1.00;;;;;;5036024;28;20163;-72
2021/11/30 12:53:04;;;;;;;5.30;2.75;;;4.80;1.00;;;;;;5036861;28;20085;-72
2021/11/30 12:55:46;;;;;;;3.03;2.05;;;4.80;1.00;;;;;;5036567;28;20037;-72
2021/11/30 12:58:38;;;;;;;5.78;3.22;;;4.80;1.00;;;;;;5036154;28;20160;-72
2021/11/30 13:01:23;;;;;;;3.30;1.15;;;4.70;1.00;;;;;;5036101;28;20064;-72
2021/11/30 13:03:50;;;;;;;6.68;2.90;;;4.70;1.00;;;;;;5036215;28;20045;-72
2021/11/30 13:06:18;;;;;;;4.25;2.72;;;4.60;1.00;;;;;;5036103;28;20042;-72
2021/11/30 13:09:05;;;;;;;6.63;3.60;;;4.60;1.00;;;;;;5036579;28;20099;-72
2021/11/30 13:11:33;;;;;;;4.43;1.67;;;4.70;1.00;;;;;;5036056;28;20117;-72
2021/11/30 13:14:04;;;;;;;4.93;1.92;;;4.70;1.00;;;;;;5035891;28;20041;-72
2021/11/30 13:16:31;;;;;;;4.05;1.95;;;4.70;1.00;;;;;;5036160;28;20125;-72
2021/11/30 13:19:10;;;;;;;4.80;2.67;;;4.80;1.00;;;;;;5035634;28;20042;-72
2021/11/30 13:21:39;;;;;;;8.40;5.60;;;4.90;1.00;;;;;;5035915;28;20056;-72